sensor_id;sensor_type;location;lat;lon;timestamp;pressure;altitude;pressure_sealevel;temperature;humidity
1652;BME280;823;49.028;8.454;2023-01-26T00:02:34;101133.50;;;5.58;53.36
1652;BME280;823;49.028;8.454;2023-01-26T00:07:34;101141.22;;;5.46;53.53
1652;BME280;823;49.028;8.454;2023-01-26T00:12:34;101130.94;;;5.38;53.48
1652;BME280;823;49.028;8.454;2023-01-26T00:17:35;101124.09;;;5.36;53.27
1652;BME280;823;49.028;8.454;2023-01-26T00:22:37;101116.41;;;5.33;53.72
1652;BME280;823;49.028;8.454;2023-01-26T00:27:37;101127.50;;;5.42;53.92
1652;BME280;823;49.028;8.454;2023-01-26T00:32:37;101110.44;;;5.46;53.74
1652;BME280;823;49.028;8.454;2023-01-26T00:37:40;101107.84;;;5.49;53.69
1652;BME280;823;49.028;8.454;2023-01-26T00:42:41;101107.84;;;5.37;53.89
1652;BME280;823;49.028;8.454;2023-01-26T00:47:41;101106.13;;;5.36;53.38
1652;BME280;823;49.028;8.454;2023-01-26T00:52:43;101101.00;;;5.48;53.36
1652;BME280;823;49.028;8.454;2023-01-26T00:57:44;101097.59;;;5.46;53.43
1652;BME280;823;49.028;8.454;2023-01-26T01:02:44;101100.16;;;5.38;53.70
1652;BME280;823;49.028;8.454;2023-01-26T01:07:44;101083.06;;;5.39;53.26
1652;BME280;823;49.028;8.454;2023-01-26T01:12:45;101072.78;;;5.36;53.00
1652;BME280;823;49.028;8.454;2023-01-26T01:17:45;101077.06;;;5.37;53.34
1652;BME280;823;49.028;8.454;2023-01-26T01:22:46;101071.94;;;5.40;53.23
1652;BME280;823;49.028;8.454;2023-01-26T01:27:46;101070.22;;;5.42;53.53
1652;BME280;823;49.028;8.454;2023-01-26T01:32:46;101061.69;;;5.43;53.20
1652;BME280;823;49.028;8.454;2023-01-26T01:37:50;101069.41;;;5.27;53.54
1652;BME280;823;49.028;8.454;2023-01-26T01:42:50;101058.28;;;5.19;53.92
1652;BME280;823;49.028;8.454;2023-01-26T01:47:53;101054.00;;;5.31;53.36
1652;BME280;823;49.028;8.454;2023-01-26T01:52:55;101057.41;;;5.28;53.78
1652;BME280;823;49.028;8.454;2023-01-26T01:57:57;101058.25;;;5.32;53.65
1652;BME280;823;49.028;8.454;2023-01-26T02:03:06;101055.72;;;5.22;53.50
1652;BME280;823;49.028;8.454;2023-01-26T02:08:12;101053.13;;;5.13;53.99
1652;BME280;823;49.028;8.454;2023-01-26T02:13:15;101061.69;;;5.15;54.08
1652;BME280;823;49.028;8.454;2023-01-26T02:18:16;101054.84;;;5.17;54.05
1652;BME280;823;49.028;8.454;2023-01-26T02:28:26;101058.25;;;4.98;54.25
1652;BME280;823;49.028;8.454;2023-01-26T02:33:28;101057.38;;;4.95;54.52
1652;BME280;823;49.028;8.454;2023-01-26T02:38:39;101048.84;;;4.95;54.31
1652;BME280;823;49.028;8.454;2023-01-26T02:43:40;101043.75;;;5.04;54.28
1652;BME280;823;49.028;8.454;2023-01-26T02:48:40;101041.19;;;5.04;54.43
1652;BME280;823;49.028;8.454;2023-01-26T02:53:59;101032.63;;;4.94;54.60
1652;BME280;823;49.028;8.454;2023-01-26T02:58:59;101033.50;;;5.04;54.46
1652;BME280;823;49.028;8.454;2023-01-26T03:04:00;101024.06;;;5.08;54.40
1652;BME280;823;49.028;8.454;2023-01-26T03:09:00;101028.34;;;5.09;54.44
1652;BME280;823;49.028;8.454;2023-01-26T03:14:00;101021.53;;;5.13;54.28
1652;BME280;823;49.028;8.454;2023-01-26T03:19:01;101020.66;;;5.20;54.27
1652;BME280;823;49.028;8.454;2023-01-26T03:24:04;101020.66;;;5.18;54.43
1652;BME280;823;49.028;8.454;2023-01-26T03:29:23;101014.66;;;5.15;54.35
1652;BME280;823;49.028;8.454;2023-01-26T03:34:26;101013.81;;;5.28;54.22
1652;BME280;823;49.028;8.454;2023-01-26T03:39:28;101014.66;;;5.30;54.05
1652;BME280;823;49.028;8.454;2023-01-26T03:44:47;101012.97;;;5.21;53.88
1652;BME280;823;49.028;8.454;2023-01-26T03:50:05;101014.69;;;5.21;54.09
1652;BME280;823;49.028;8.454;2023-01-26T03:55:24;101002.69;;;5.12;54.40
1652;BME280;823;49.028;8.454;2023-01-26T04:00:43;101001.00;;;5.17;54.22
1652;BME280;823;49.028;8.454;2023-01-26T04:05:43;100996.72;;;5.19;54.18
1652;BME280;823;49.028;8.454;2023-01-26T04:11:02;100988.19;;;5.14;54.60
1652;BME280;823;49.028;8.454;2023-01-26T04:16:03;100984.75;;;5.09;54.12
1652;BME280;823;49.028;8.454;2023-01-26T04:21:22;100975.34;;;5.06;54.51
1652;BME280;823;49.028;8.454;2023-01-26T04:26:30;100976.22;;;4.98;54.99
1652;BME280;823;49.028;8.454;2023-01-26T04:31:34;100970.25;;;4.99;55.18
1652;BME280;823;49.028;8.454;2023-01-26T04:36:34;100979.63;;;4.97;55.84
1652;BME280;823;49.028;8.454;2023-01-26T04:41:35;100981.34;;;4.94;55.80
1652;BME280;823;49.028;8.454;2023-01-26T04:46:35;100980.50;;;4.94;56.06
1652;BME280;823;49.028;8.454;2023-01-26T04:51:35;100973.66;;;4.90;56.07
1652;BME280;823;49.028;8.454;2023-01-26T04:56:36;100964.25;;;4.59;57.30
1652;BME280;823;49.028;8.454;2023-01-26T05:01:36;100971.94;;;4.59;57.61
1652;BME280;823;49.028;8.454;2023-01-26T05:06:37;100966.81;;;4.56;57.90
1652;BME280;823;49.028;8.454;2023-01-26T05:11:38;100963.38;;;4.50;58.33
1652;BME280;823;49.028;8.454;2023-01-26T05:16:38;100971.06;;;4.51;58.47
1652;BME280;823;49.028;8.454;2023-01-26T05:21:38;100966.78;;;4.27;59.20
1652;BME280;823;49.028;8.454;2023-01-26T05:26:38;100970.22;;;4.46;58.65
1652;BME280;823;49.028;8.454;2023-01-26T05:31:39;100965.00;;;4.12;59.39
1652;BME280;823;49.028;8.454;2023-01-26T05:36:40;100965.91;;;4.36;58.75
1652;BME280;823;49.028;8.454;2023-01-26T05:41:40;100960.78;;;4.22;59.28
1652;BME280;823;49.028;8.454;2023-01-26T05:46:40;100968.50;;;4.30;59.17
1652;BME280;823;49.028;8.454;2023-01-26T05:51:41;100967.63;;;4.32;59.22
1652;BME280;823;49.028;8.454;2023-01-26T05:56:41;100965.09;;;4.32;58.93
1652;BME280;823;49.028;8.454;2023-01-26T06:01:41;100961.69;;;4.36;59.21
1652;BME280;823;49.028;8.454;2023-01-26T06:06:41;100968.50;;;4.40;58.79
1652;BME280;823;49.028;8.454;2023-01-26T06:11:42;100965.91;;;4.34;59.17
1652;BME280;823;49.028;8.454;2023-01-26T06:16:42;100971.91;;;4.38;59.05
1652;BME280;823;49.028;8.454;2023-01-26T06:21:42;100970.22;;;4.45;58.49
1652;BME280;823;49.028;8.454;2023-01-26T06:26:43;100971.91;;;4.41;58.85
1652;BME280;823;49.028;8.454;2023-01-26T06:31:43;100971.91;;;4.39;59.02
1652;BME280;823;49.028;8.454;2023-01-26T06:36:43;100975.34;;;4.45;58.67
1652;BME280;823;49.028;8.454;2023-01-26T06:41:44;100982.16;;;4.39;58.83
1652;BME280;823;49.028;8.454;2023-01-26T06:46:44;100986.44;;;4.39;59.00
1652;BME280;823;49.028;8.454;2023-01-26T06:51:47;100979.59;;;4.41;59.01
1652;BME280;823;49.028;8.454;2023-01-26T06:56:51;100984.72;;;4.35;59.01
1652;BME280;823;49.028;8.454;2023-01-26T07:01:51;100989.84;;;4.41;58.64
1652;BME280;823;49.028;8.454;2023-01-26T07:06:52;100988.16;;;4.51;58.65
1652;BME280;823;49.028;8.454;2023-01-26T07:11:52;100995.00;;;4.55;58.59
1652;BME280;823;49.028;8.454;2023-01-26T07:16:52;100992.44;;;4.56;58.37
1652;BME280;823;49.028;8.454;2023-01-26T07:21:52;100993.25;;;4.41;58.96
1652;BME280;823;49.028;8.454;2023-01-26T07:26:53;100994.97;;;4.41;58.91
1652;BME280;823;49.028;8.454;2023-01-26T07:31:53;100999.25;;;4.48;58.67
1652;BME280;823;49.028;8.454;2023-01-26T07:36:53;101004.38;;;4.47;58.74
1652;BME280;823;49.028;8.454;2023-01-26T07:41:54;101000.13;;;4.53;58.37
1652;BME280;823;49.028;8.454;2023-01-26T07:46:54;100989.88;;;4.55;58.76
1652;BME280;823;49.028;8.454;2023-01-26T07:51:54;100992.44;;;4.64;58.36
1652;BME280;823;49.028;8.454;2023-01-26T07:56:55;100998.41;;;4.52;58.64
1652;BME280;823;49.028;8.454;2023-01-26T08:01:55;101004.38;;;4.59;58.42
1652;BME280;823;49.028;8.454;2023-01-26T08:06:55;101013.78;;;4.55;58.35
1652;BME280;823;49.028;8.454;2023-01-26T08:11:56;101017.19;;;4.59;58.40
1652;BME280;823;49.028;8.454;2023-01-26T08:16:57;101010.38;;;4.69;58.24
1652;BME280;823;49.028;8.454;2023-01-26T08:21:58;101017.19;;;4.60;58.42
1652;BME280;823;49.028;8.454;2023-01-26T08:26:58;101018.06;;;4.66;57.91
1652;BME280;823;49.028;8.454;2023-01-26T08:31:58;101026.59;;;4.68;58.02
1652;BME280;823;49.028;8.454;2023-01-26T08:36:59;101021.47;;;4.65;58.23
1652;BME280;823;49.028;8.454;2023-01-26T08:41:59;101018.91;;;4.63;57.92
1652;BME280;823;49.028;8.454;2023-01-26T08:46:59;101026.59;;;4.62;57.66
1652;BME280;823;49.028;8.454;2023-01-26T08:51:59;101016.34;;;4.62;57.80
1652;BME280;823;49.028;8.454;2023-01-26T08:57:00;101016.38;;;4.58;58.06
1652;BME280;823;49.028;8.454;2023-01-26T09:02:00;101029.16;;;4.60;57.94
1652;BME280;823;49.028;8.454;2023-01-26T09:07:00;101033.41;;;4.59;58.09
1652;BME280;823;49.028;8.454;2023-01-26T09:12:01;101028.25;;;4.44;58.01
1652;BME280;823;49.028;8.454;2023-01-26T09:17:01;101018.91;;;4.51;57.74
1652;BME280;823;49.028;8.454;2023-01-26T09:22:01;101023.16;;;4.58;58.12
1652;BME280;823;49.028;8.454;2023-01-26T09:27:02;101032.50;;;4.30;58.28
1652;BME280;823;49.028;8.454;2023-01-26T09:32:02;101020.59;;;4.41;57.90
1652;BME280;823;49.028;8.454;2023-01-26T09:37:05;101023.16;;;4.47;57.95
1652;BME280;823;49.028;8.454;2023-01-26T09:42:19;101030.84;;;4.59;57.75
1652;BME280;823;49.028;8.454;2023-01-26T09:47:30;101023.16;;;4.55;57.46
1652;BME280;823;49.028;8.454;2023-01-26T09:52:40;101025.75;;;4.61;57.12
1652;BME280;823;49.028;8.454;2023-01-26T09:57:50;101020.59;;;4.55;57.05
1652;BME280;823;49.028;8.454;2023-01-26T10:08:19;101027.47;;;4.70;56.50
1652;BME280;823;49.028;8.454;2023-01-26T10:13:22;101025.75;;;4.63;56.39
1652;BME280;823;49.028;8.454;2023-01-26T10:18:29;101024.91;;;4.71;56.42
1652;BME280;823;49.028;8.454;2023-01-26T10:23:33;101018.06;;;4.63;56.32
1652;BME280;823;49.028;8.454;2023-01-26T10:28:34;101013.78;;;4.66;56.18
1652;BME280;823;49.028;8.454;2023-01-26T10:33:36;101003.53;;;4.68;56.22
1652;BME280;823;49.028;8.454;2023-01-26T10:43:40;100989.06;;;4.81;56.02
1652;BME280;823;49.028;8.454;2023-01-26T10:48:50;101000.13;;;4.84;56.16
1652;BME280;823;49.028;8.454;2023-01-26T10:54:19;100983.91;;;4.73;56.33
1652;BME280;823;49.028;8.454;2023-01-26T10:59:31;100987.34;;;4.81;56.01
1652;BME280;823;49.028;8.454;2023-01-26T11:04:32;100991.59;;;4.70;56.63
1652;BME280;823;49.028;8.454;2023-01-26T11:09:32;100985.59;;;4.66;56.94
1652;BME280;823;49.028;8.454;2023-01-26T11:14:33;100980.44;;;4.41;57.65
1652;BME280;823;49.028;8.454;2023-01-26T11:30:53;100970.13;;;4.15;58.71
1652;BME280;823;49.028;8.454;2023-01-26T11:36:09;100970.13;;;4.14;58.64
1652;BME280;823;49.028;8.454;2023-01-26T11:41:31;100969.22;;;3.90;59.44
1652;BME280;823;49.028;8.454;2023-01-26T11:52:13;100951.38;;;4.21;59.43
1652;BME280;823;49.028;8.454;2023-01-26T11:57:39;100956.50;;;4.12;59.25
1652;BME280;823;49.028;8.454;2023-01-26T12:02:51;100943.66;;;4.07;58.92
1652;BME280;823;49.028;8.454;2023-01-26T12:08:26;100940.28;;;4.17;58.88
1652;BME280;823;49.028;8.454;2023-01-26T12:13:36;100934.28;;;4.15;58.37
1652;BME280;823;49.028;8.454;2023-01-26T12:18:46;100932.63;;;4.31;58.29
1652;BME280;823;49.028;8.454;2023-01-26T12:23:55;100918.13;;;4.46;58.04
1652;BME280;823;49.028;8.454;2023-01-26T12:34:25;100902.78;;;4.53;56.90
1652;BME280;823;49.028;8.454;2023-01-26T12:39:33;100902.78;;;4.66;56.37
1652;BME280;823;49.028;8.454;2023-01-26T12:59:50;100891.66;;;4.82;53.46
1652;BME280;823;49.028;8.454;2023-01-26T13:04:51;100890.81;;;4.63;53.24
1652;BME280;823;49.028;8.454;2023-01-26T13:15:13;100884.81;;;4.84;52.71
1652;BME280;823;49.028;8.454;2023-01-26T13:25:48;100878.84;;;4.85;52.08
1652;BME280;823;49.028;8.454;2023-01-26T13:31:06;100883.94;;;4.94;52.01
1652;BME280;823;49.028;8.454;2023-01-26T13:36:14;100884.81;;;4.84;51.62
1652;BME280;823;49.028;8.454;2023-01-26T13:41:18;100889.06;;;4.88;51.79
1652;BME280;823;49.028;8.454;2023-01-26T13:46:42;100888.22;;;5.00;51.19
1652;BME280;823;49.028;8.454;2023-01-26T13:51:44;100879.69;;;4.89;51.03
1652;BME280;823;49.028;8.454;2023-01-26T13:57:04;100883.94;;;4.99;50.68
1652;BME280;823;49.028;8.454;2023-01-26T14:02:10;100890.78;;;4.99;50.94
1652;BME280;823;49.028;8.454;2023-01-26T14:07:14;100886.53;;;4.84;50.77
1652;BME280;823;49.028;8.454;2023-01-26T14:12:26;100896.78;;;4.71;50.21
1652;BME280;823;49.028;8.454;2023-01-26T14:17:29;100902.75;;;4.72;50.36
1652;BME280;823;49.028;8.454;2023-01-26T14:22:30;100909.59;;;4.64;51.00
1652;BME280;823;49.028;8.454;2023-01-26T14:27:40;100911.31;;;4.62;50.69
1652;BME280;823;49.028;8.454;2023-01-26T14:32:40;100916.44;;;4.49;50.71
1652;BME280;823;49.028;8.454;2023-01-26T14:37:41;100908.75;;;4.49;50.65
1652;BME280;823;49.028;8.454;2023-01-26T14:42:41;100913.88;;;4.46;50.89
1652;BME280;823;49.028;8.454;2023-01-26T14:47:42;100924.97;;;4.48;51.88
1652;BME280;823;49.028;8.454;2023-01-26T14:52:44;100913.00;;;4.38;51.37
1652;BME280;823;49.028;8.454;2023-01-26T14:57:45;100914.72;;;4.42;51.90
1652;BME280;823;49.028;8.454;2023-01-26T15:02:47;100923.22;;;4.21;52.17
1652;BME280;823;49.028;8.454;2023-01-26T15:07:54;100921.47;;;3.92;52.34
1652;BME280;823;49.028;8.454;2023-01-26T15:23:22;100943.72;;;4.22;52.38
1652;BME280;823;49.028;8.454;2023-01-26T15:28:24;100940.22;;;3.97;52.17
1652;BME280;823;49.028;8.454;2023-01-26T15:38:48;100939.34;;;3.89;52.22
1652;BME280;823;49.028;8.454;2023-01-26T15:43:49;100943.66;;;4.02;52.52
1652;BME280;823;49.028;8.454;2023-01-26T15:48:49;100931.75;;;4.21;52.08
1652;BME280;823;49.028;8.454;2023-01-26T15:53:49;100942.00;;;4.21;52.08
1652;BME280;823;49.028;8.454;2023-01-26T15:58:49;100943.72;;;4.30;51.66
1652;BME280;823;49.028;8.454;2023-01-26T16:03:51;100942.88;;;4.34;51.49
1652;BME280;823;49.028;8.454;2023-01-26T16:08:53;100942.88;;;4.37;51.53
1652;BME280;823;49.028;8.454;2023-01-26T16:13:53;100939.47;;;4.35;51.69
1652;BME280;823;49.028;8.454;2023-01-26T16:18:55;100931.78;;;4.18;51.68
1652;BME280;823;49.028;8.454;2023-01-26T16:23:56;100933.47;;;4.27;51.30
1652;BME280;823;49.028;8.454;2023-01-26T16:28:56;100926.66;;;4.21;51.55
1652;BME280;823;49.028;8.454;2023-01-26T16:33:58;100926.63;;;4.11;51.67
1652;BME280;823;49.028;8.454;2023-01-26T16:38:58;100933.41;;;4.02;51.53
1652;BME280;823;49.028;8.454;2023-01-26T16:44:00;100923.19;;;3.95;51.19
1652;BME280;823;49.028;8.454;2023-01-26T16:49:00;100935.09;;;3.92;51.50
1652;BME280;823;49.028;8.454;2023-01-26T16:54:00;100941.88;;;3.81;51.80
1652;BME280;823;49.028;8.454;2023-01-26T16:59:01;100940.19;;;3.82;51.21
1652;BME280;823;49.028;8.454;2023-01-26T17:04:02;100950.44;;;3.89;51.19
1652;BME280;823;49.028;8.454;2023-01-26T17:09:03;100950.41;;;3.80;51.38
1652;BME280;823;49.028;8.454;2023-01-26T17:14:03;100938.50;;;3.90;50.96
1652;BME280;823;49.028;8.454;2023-01-26T17:19:04;100947.91;;;3.99;51.33
1652;BME280;823;49.028;8.454;2023-01-26T17:24:04;100941.09;;;3.95;51.26
1652;BME280;823;49.028;8.454;2023-01-26T17:29:06;100950.50;;;4.11;50.52
1652;BME280;823;49.028;8.454;2023-01-26T17:34:07;100951.38;;;4.08;50.49
1652;BME280;823;49.028;8.454;2023-01-26T17:39:09;100944.53;;;4.14;50.36
1652;BME280;823;49.028;8.454;2023-01-26T17:44:09;100948.81;;;4.10;49.92
1652;BME280;823;49.028;8.454;2023-01-26T17:49:10;100948.81;;;4.12;49.90
1652;BME280;823;49.028;8.454;2023-01-26T17:54:10;100948.78;;;3.96;50.40
1652;BME280;823;49.028;8.454;2023-01-26T17:59:10;100942.81;;;4.00;50.00
1652;BME280;823;49.028;8.454;2023-01-26T18:04:11;100948.69;;;3.76;49.45
1652;BME280;823;49.028;8.454;2023-01-26T18:09:11;100949.50;;;3.67;49.83
1652;BME280;823;49.028;8.454;2023-01-26T18:14:12;100949.56;;;3.87;49.53
1652;BME280;823;49.028;8.454;2023-01-26T18:19:12;100960.66;;;3.80;49.50
1652;BME280;823;49.028;8.454;2023-01-26T18:24:12;100957.19;;;3.70;49.46
1652;BME280;823;49.028;8.454;2023-01-26T18:29:12;100961.47;;;3.78;49.50
1652;BME280;823;49.028;8.454;2023-01-26T18:34:14;100957.19;;;3.66;49.36
1652;BME280;823;49.028;8.454;2023-01-26T18:39:14;100966.66;;;3.87;49.91
1652;BME280;823;49.028;8.454;2023-01-26T18:44:15;100953.03;;;3.96;50.22
1652;BME280;823;49.028;8.454;2023-01-26T18:49:17;100954.78;;;4.04;49.84
1652;BME280;823;49.028;8.454;2023-01-26T18:54:17;100959.00;;;3.98;49.66
1652;BME280;823;49.028;8.454;2023-01-26T18:59:19;100961.63;;;4.08;49.85
1652;BME280;823;49.028;8.454;2023-01-26T19:04:19;100947.97;;;4.16;49.59
1652;BME280;823;49.028;8.454;2023-01-26T19:09:20;100955.63;;;4.00;49.45
1652;BME280;823;49.028;8.454;2023-01-26T19:14:20;100955.63;;;4.11;49.68
1652;BME280;823;49.028;8.454;2023-01-26T19:19:20;100941.97;;;4.15;49.81
1652;BME280;823;49.028;8.454;2023-01-26T19:24:21;100956.53;;;4.24;49.89
1652;BME280;823;49.028;8.454;2023-01-26T19:29:21;100956.53;;;4.30;49.82
1652;BME280;823;49.028;8.454;2023-01-26T19:34:21;100962.53;;;4.31;50.11
1652;BME280;823;49.028;8.454;2023-01-26T19:39:22;100955.66;;;4.23;50.03
1652;BME280;823;49.028;8.454;2023-01-26T19:44:22;100948.81;;;4.21;50.06
1652;BME280;823;49.028;8.454;2023-01-26T19:49:22;100943.72;;;4.29;49.75
1652;BME280;823;49.028;8.454;2023-01-26T19:54:23;100943.69;;;4.13;50.03
1652;BME280;823;49.028;8.454;2023-01-26T19:59:23;100948.81;;;4.10;50.16
1652;BME280;823;49.028;8.454;2023-01-26T20:04:25;100951.34;;;4.01;49.90
1652;BME280;823;49.028;8.454;2023-01-26T20:09:25;100947.94;;;4.06;50.45
1652;BME280;823;49.028;8.454;2023-01-26T20:14:25;100939.41;;;4.12;50.83
1652;BME280;823;49.028;8.454;2023-01-26T20:19:26;100938.53;;;4.07;50.97
1652;BME280;823;49.028;8.454;2023-01-26T20:24:27;100937.72;;;4.13;50.56
1652;BME280;823;49.028;8.454;2023-01-26T20:29:28;100939.41;;;4.06;50.70
1652;BME280;823;49.028;8.454;2023-01-26T20:34:28;100939.41;;;4.07;50.74
1652;BME280;823;49.028;8.454;2023-01-26T20:39:29;100943.66;;;4.01;50.92
1652;BME280;823;49.028;8.454;2023-01-26T20:44:29;100937.66;;;3.94;50.67
1652;BME280;823;49.028;8.454;2023-01-26T20:49:29;100952.19;;;4.00;50.43
1652;BME280;823;49.028;8.454;2023-01-26T20:54:30;100937.66;;;3.99;50.66
1652;BME280;823;49.028;8.454;2023-01-26T20:59:30;100942.81;;;4.05;50.89
1652;BME280;823;49.028;8.454;2023-01-26T21:04:30;100935.97;;;4.02;51.44
1652;BME280;823;49.028;8.454;2023-01-26T21:09:31;100941.94;;;4.01;51.22
1652;BME280;823;49.028;8.454;2023-01-26T21:14:31;100936.78;;;3.87;51.24
1652;BME280;823;49.028;8.454;2023-01-26T21:19:32;100933.41;;;4.02;51.17
1652;BME280;823;49.028;8.454;2023-01-26T21:24:34;100924.91;;;4.05;51.41
1652;BME280;823;49.028;8.454;2023-01-26T21:29:34;100918.94;;;4.04;51.64
1652;BME280;823;49.028;8.454;2023-01-26T21:34:34;100918.94;;;4.12;51.44
1652;BME280;823;49.028;8.454;2023-01-26T21:39:35;100914.66;;;4.08;51.37
1652;BME280;823;49.028;8.454;2023-01-26T21:44:35;100911.25;;;4.06;51.52
1652;BME280;823;49.028;8.454;2023-01-26T21:49:58;100923.19;;;4.01;51.18
1652;BME280;823;49.028;8.454;2023-01-26T21:54:58;100905.25;;;4.05;50.98
1652;BME280;823;49.028;8.454;2023-01-26T21:59:58;100903.53;;;4.03;51.19
1652;BME280;823;49.028;8.454;2023-01-26T22:04:59;100909.53;;;4.08;51.20
1652;BME280;823;49.028;8.454;2023-01-26T22:09:59;100902.72;;;4.10;51.18
1652;BME280;823;49.028;8.454;2023-01-26T22:14:59;100891.59;;;3.94;51.29
1652;BME280;823;49.028;8.454;2023-01-26T22:19:59;100895.03;;;4.01;51.29
1652;BME280;823;49.028;8.454;2023-01-26T22:25:00;100887.34;;;4.01;51.26
1652;BME280;823;49.028;8.454;2023-01-26T22:30:00;100886.50;;;4.08;51.57
1652;BME280;823;49.028;8.454;2023-01-26T22:35:01;100887.38;;;4.08;51.75
1652;BME280;823;49.028;8.454;2023-01-26T22:40:01;100889.06;;;4.11;52.07
1652;BME280;823;49.028;8.454;2023-01-26T22:45:01;100877.13;;;4.13;51.87
1652;BME280;823;49.028;8.454;2023-01-26T22:50:02;100885.66;;;4.12;51.83
1652;BME280;823;49.028;8.454;2023-01-26T22:55:02;100881.41;;;4.16;51.59
1652;BME280;823;49.028;8.454;2023-01-26T23:00:04;100875.38;;;4.03;51.56
1652;BME280;823;49.028;8.454;2023-01-26T23:05:05;100875.41;;;3.90;51.76
1652;BME280;823;49.028;8.454;2023-01-26T23:10:06;100871.97;;;3.85;52.02
1652;BME280;823;49.028;8.454;2023-01-26T23:15:06;100876.22;;;3.99;52.29
1652;BME280;823;49.028;8.454;2023-01-26T23:20:07;100870.28;;;4.03;52.60
1652;BME280;823;49.028;8.454;2023-01-26T23:25:08;100871.13;;;3.96;52.54
1652;BME280;823;49.028;8.454;2023-01-26T23:30:27;100862.59;;;4.01;52.67
1652;BME280;823;49.028;8.454;2023-01-26T23:35:28;100856.59;;;3.88;53.02
1652;BME280;823;49.028;8.454;2023-01-26T23:40:28;100856.63;;;3.99;52.85
1652;BME280;823;49.028;8.454;2023-01-26T23:45:29;100851.50;;;4.02;52.83
1652;BME280;823;49.028;8.454;2023-01-26T23:50:29;100862.63;;;4.04;53.17
1652;BME280;823;49.028;8.454;2023-01-26T23:55:30;100855.78;;;4.08;53.33
